This is the latest recevied weather packets stored in our database for station/object DC8RAI-12. If no packets are shown the sender has not sent any weather packets the latest 10 day(s).
| Time | Temp. | Humidity | Pressure | Rain* | Wind** | Luminosity | Snow |
|---|---|---|---|---|---|---|---|
| 1777605300 | -0.56° C | 66% | 1026.8 hPa | - | - | - | - |
| 1777604399 | -0.56° C | 66% | 1026.8 hPa | - | - | - | - |
| 1777603499 | -0.56° C | 70% | 1026.9 hPa | - | - | - | - |
| 1777602599 | 0° C | 65% | 1026.8 hPa | - | - | - | - |
| 1777601698 | 0° C | 65% | 1026.8 hPa | - | - | - | - |
| 1777600798 | 0° C | 65% | 1026.8 hPa | - | - | - | - |
| 1777599898 | -0.56° C | 70% | 1026.7 hPa | - | - | - | - |
| 1777598998 | 0.56° C | 64% | 1026.6 hPa | - | - | - | - |
| 1777598098 | 1.11° C | 62% | 1026.8 hPa | - | - | - | - |
| 1777597198 | 0.56° C | 65% | 1026.6 hPa | - | - | - | - |
| 1777596294 | 0.56° C | 69% | 1026.8 hPa | - | - | - | - |
| 1777595393 | 1.11° C | 64% | 1026.8 hPa | - | - | - | - |
| 1777594493 | 1.11° C | 63% | 1026.7 hPa | - | - | - | - |
| 1777593593 | 1.11° C | 65% | 1026.8 hPa | - | - | - | - |
| 1777592693 | 2.22° C | 61% | 1026.8 hPa | - | - | - | - |
| 1777591793 | 1.67° C | 59% | 1026.8 hPa | - | - | - | - |
| 1777590893 | 2.78° C | 57% | 1026.6 hPa | - | - | - | - |
| 1777589993 | 2.22° C | 59% | 1026.7 hPa | - | - | - | - |
| 1777589093 | 3.33° C | 60% | 1026.6 hPa | - | - | - | - |
| 1777588193 | 2.78° C | 57% | 1026.7 hPa | - | - | - | - |
| 1777587293 | 4.44° C | 51% | 1026.7 hPa | - | - | - | - |
| 1777586392 | 3.89° C | 53% | 1026.7 hPa | - | - | - | - |
| 1777585492 | 4.44° C | 52% | 1026.7 hPa | - | - | - | - |
| 1777584592 | 3.89° C | 54% | 1026.7 hPa | - | - | - | - |
| 1777583692 | 5.56° C | 51% | 1026.5 hPa | - | - | - | - |
* Rain since midnight (hover to see other rain measurements)
** Current wind speed in m/s (hover to see current wind gust speed)